createdAt,value
2018-01-22T00:00:00.889Z,0.80
2018-01-22T00:02:31.864Z,0.80
2018-01-22T00:05:01.959Z,0.70
2018-01-22T00:07:38.366Z,0.70
2018-01-22T00:10:07.917Z,1.23
2018-01-22T00:12:37.543Z,0.90
2018-01-22T00:15:07.388Z,0.77
2018-01-22T00:17:36.911Z,0.70
2018-01-22T00:20:06.466Z,0.90
2018-01-22T00:22:42.020Z,0.90
2018-01-22T00:25:11.569Z,0.83
2018-01-22T00:27:41.092Z,0.73
2018-01-22T00:30:11.908Z,0.80
2018-01-22T00:32:53.329Z,0.90
2018-01-22T00:35:24.368Z,0.90
2018-01-22T00:37:54.421Z,1.17
2018-01-22T00:40:23.959Z,0.80
2018-01-22T00:43:08.180Z,0.77
2018-01-22T00:45:37.747Z,0.80
2018-01-22T00:48:11.314Z,0.80
2018-01-22T00:50:41.089Z,0.70
2018-01-22T00:53:11.044Z,0.80
2018-01-22T00:55:40.560Z,0.80
2018-01-22T00:58:10.080Z,0.80
2018-01-22T01:00:40.989Z,0.90
2018-01-22T01:03:10.544Z,0.73
2018-01-22T01:05:40.064Z,0.70
2018-01-22T01:08:09.567Z,0.70
2018-01-22T01:10:39.071Z,0.70
2018-01-22T01:13:10.053Z,0.87
2018-01-22T01:15:39.611Z,0.80
2018-01-22T01:18:09.151Z,0.83
2018-01-22T01:20:44.868Z,1.17
2018-01-22T01:23:14.343Z,0.80
2018-01-22T01:25:43.904Z,1.10
2018-01-22T01:28:13.461Z,0.80
2018-01-22T01:31:03.913Z,1.00
2018-01-22T01:33:33.452Z,1.10
2018-01-22T01:36:02.956Z,1.23
2018-01-22T01:38:32.510Z,1.10
2018-01-22T01:41:02.050Z,1.00
2018-01-22T01:43:31.587Z,1.00
2018-01-22T01:46:01.156Z,0.90
2018-01-22T01:48:31.110Z,1.00
2018-01-22T01:51:01.717Z,0.90
2018-01-22T01:53:31.316Z,1.30
2018-01-22T01:56:14.733Z,1.00
2018-01-22T01:58:44.214Z,1.10
2018-01-22T02:01:13.957Z,1.00
2018-01-22T02:03:55.560Z,1.20
2018-01-22T02:06:25.612Z,1.10
2018-01-22T02:08:55.120Z,0.90
2018-01-22T02:11:25.870Z,0.90
2018-01-22T02:13:55.600Z,1.10
2018-01-22T02:16:25.499Z,0.90
2018-01-22T02:18:55.884Z,1.00
2018-01-22T02:21:25.451Z,0.93
2018-01-22T02:23:55.169Z,1.13
2018-01-22T02:26:24.691Z,1.53
2018-01-22T02:28:54.196Z,1.40
2018-01-22T02:31:24.107Z,2.00
2018-01-22T02:33:54.475Z,2.00
2018-01-22T02:36:24.491Z,2.70
2018-01-22T02:38:56.933Z,1.73
2018-01-22T02:41:26.885Z,1.47
2018-01-22T02:43:56.629Z,1.07
2018-01-22T02:46:26.285Z,1.10
2018-01-22T02:48:55.894Z,1.10
2018-01-22T02:51:34.408Z,1.10
2018-01-22T02:54:16.899Z,0.90
2018-01-22T02:56:48.896Z,1.13
2018-01-22T02:59:18.424Z,1.00
2018-01-22T03:01:49.031Z,1.27
2018-01-22T03:04:18.970Z,1.03
2018-01-22T03:06:49.074Z,1.27
2018-01-22T03:09:18.837Z,1.00
2018-01-22T03:11:50.620Z,1.50
2018-01-22T03:14:20.407Z,1.40
2018-01-22T03:16:50.739Z,1.53
2018-01-22T03:19:20.265Z,1.23
2018-01-22T03:21:50.661Z,1.13
2018-01-22T03:24:20.665Z,1.70
2018-01-22T03:26:50.210Z,1.23
2018-01-22T03:29:28.397Z,1.30
2018-01-22T03:32:04.739Z,1.10
2018-01-22T03:34:34.249Z,1.50
2018-01-22T03:37:17.667Z,1.33
2018-01-22T03:39:47.151Z,1.27
2018-01-22T03:42:30.112Z,1.30
2018-01-22T03:44:59.662Z,1.20
2018-01-22T03:47:29.656Z,1.30
2018-01-22T03:49:59.257Z,1.73
2018-01-22T03:52:28.904Z,1.60
2018-01-22T03:54:58.473Z,1.50
2018-01-22T03:57:27.984Z,1.87
2018-01-22T03:59:57.513Z,1.47
2018-01-22T04:02:27.960Z,2.07
2018-01-22T04:04:57.567Z,3.80
2018-01-22T04:07:27.580Z,3.43
2018-01-22T04:09:57.485Z,4.93
2018-01-22T04:12:27.037Z,3.40
2018-01-22T04:14:56.793Z,2.30
2018-01-22T04:17:26.346Z,2.60
2018-01-22T04:19:55.877Z,1.90
2018-01-22T04:22:25.397Z,2.13
2018-01-22T04:24:57.880Z,1.50
2018-01-22T04:27:27.628Z,1.70
2018-01-22T04:29:57.221Z,1.40
2018-01-22T04:32:27.856Z,1.70
2018-01-22T04:34:59.819Z,1.60
2018-01-22T04:37:29.382Z,1.77
2018-01-22T04:39:59.097Z,1.47
2018-01-22T04:42:28.573Z,1.40
2018-01-22T04:44:58.107Z,1.37
2018-01-22T04:47:28.429Z,1.77
2018-01-22T04:49:58.381Z,2.47
2018-01-22T04:52:28.177Z,2.00
2018-01-22T04:54:57.807Z,1.97
2018-01-22T04:57:27.376Z,1.63
2018-01-22T04:59:57.189Z,1.60
2018-01-22T05:02:26.687Z,1.90
2018-01-22T05:05:03.455Z,1.53
2018-01-22T05:07:33.189Z,2.17
2018-01-22T05:10:10.102Z,2.00
2018-01-22T05:12:39.963Z,2.20
2018-01-22T05:15:09.496Z,2.23
2018-01-22T05:17:39.105Z,2.90
2018-01-22T05:20:08.985Z,2.90
2018-01-22T05:22:38.524Z,5.27
2018-01-22T05:25:08.782Z,3.23
2018-01-22T05:27:38.998Z,2.93
2018-01-22T05:30:08.525Z,2.40
2018-01-22T05:32:38.297Z,2.10
2018-01-22T05:35:08.970Z,2.87
2018-01-22T05:37:42.241Z,2.13
2018-01-22T05:40:12.793Z,2.53
2018-01-22T05:42:42.341Z,2.40
2018-01-22T05:45:12.168Z,2.67
2018-01-22T05:47:46.471Z,2.40
2018-01-22T05:50:16.877Z,2.10
2018-01-22T05:52:48.029Z,2.10
2018-01-22T05:55:17.590Z,1.77
2018-01-22T05:58:03.245Z,1.40
2018-01-22T06:00:33.193Z,1.20
2018-01-22T06:03:02.913Z,1.53
2018-01-22T06:05:32.894Z,1.70
2018-01-22T06:08:03.510Z,1.97
2018-01-22T06:10:33.561Z,1.70
2018-01-22T06:13:03.672Z,1.50
2018-01-22T06:15:33.226Z,2.13
2018-01-22T06:18:03.547Z,1.80
2018-01-22T06:20:33.573Z,2.30
2018-01-22T06:23:11.028Z,1.90
2018-01-22T06:25:41.593Z,1.80
2018-01-22T06:28:14.907Z,1.93
2018-01-22T06:30:44.974Z,1.53
2018-01-22T06:33:14.491Z,1.80
2018-01-22T06:35:45.939Z,1.57
2018-01-22T06:38:15.489Z,1.60
2018-01-22T06:40:45.260Z,1.80
2018-01-22T06:43:14.845Z,1.77
2018-01-22T06:45:44.366Z,1.77
2018-01-22T06:48:13.879Z,1.97
2018-01-22T06:50:43.697Z,1.80
2018-01-22T06:53:19.258Z,1.93
2018-01-22T06:55:49.266Z,2.30
2018-01-22T06:58:19.964Z,2.40
2018-01-22T07:00:57.153Z,1.90
2018-01-22T07:03:28.781Z,2.03
2018-01-22T07:06:08.674Z,2.00
2018-01-22T07:08:39.615Z,1.90
2018-01-22T07:11:11.033Z,1.80
2018-01-22T07:13:41.405Z,1.87
2018-01-22T07:16:18.346Z,1.90
2018-01-22T07:18:51.431Z,2.00
2018-01-22T07:21:20.975Z,1.87
2018-01-22T07:23:50.541Z,2.10
2018-01-22T07:26:21.758Z,2.10
2018-01-22T07:29:10.857Z,1.87
2018-01-22T07:31:42.341Z,1.60
2018-01-22T07:34:12.460Z,1.87
2018-01-22T07:36:47.070Z,2.17
2018-01-22T07:39:16.582Z,2.73
2018-01-22T07:41:47.165Z,2.00
2018-01-22T07:44:16.807Z,2.10
2018-01-22T07:46:48.221Z,2.20
2018-01-22T07:49:31.063Z,2.40
2018-01-22T07:52:01.357Z,2.10
2018-01-22T07:54:31.158Z,1.80
2018-01-22T07:57:01.163Z,2.17
2018-01-22T07:59:30.755Z,2.20
2018-01-22T08:02:01.310Z,2.07
2018-01-22T08:04:30.849Z,2.20
2018-01-22T08:07:16.649Z,2.43
2018-01-22T08:09:46.762Z,2.30
2018-01-22T08:12:16.303Z,2.37
2018-01-22T08:14:47.009Z,1.90
2018-01-22T08:17:16.933Z,2.20
2018-01-22T08:19:50.532Z,2.60
2018-01-22T08:22:30.329Z,2.10
2018-01-22T08:24:59.997Z,2.30
2018-01-22T08:27:31.488Z,2.30
2018-01-22T08:30:01.060Z,2.20
2018-01-22T08:32:30.929Z,2.03
2018-01-22T08:35:01.612Z,2.40
2018-01-22T08:37:33.121Z,2.07
2018-01-22T08:40:04.993Z,2.10
2018-01-22T08:42:34.551Z,1.83
2018-01-22T08:45:05.845Z,1.83
2018-01-22T08:47:35.451Z,2.43
2018-01-22T08:50:04.994Z,2.47
2018-01-22T08:52:34.692Z,1.67
2018-01-22T08:55:04.248Z,1.97
2018-01-22T08:57:33.796Z,2.00
2018-01-22T09:00:03.373Z,2.83
2018-01-22T09:02:34.962Z,3.07
2018-01-22T09:05:04.546Z,2.30
2018-01-22T09:07:34.400Z,2.20
2018-01-22T09:10:03.928Z,2.20
2018-01-22T09:12:41.349Z,2.20
2018-01-22T09:15:10.849Z,2.00
2018-01-22T09:17:54.386Z,2.30
2018-01-22T09:20:35.125Z,2.53
2018-01-22T09:23:04.625Z,1.87
2018-01-22T09:25:40.192Z,2.07
2018-01-22T09:28:09.705Z,2.23
2018-01-22T09:30:39.242Z,2.40
2018-01-22T09:33:08.820Z,2.23
2018-01-22T09:35:38.365Z,2.10
2018-01-22T09:38:07.904Z,2.13
2018-01-22T09:40:37.467Z,2.10
2018-01-22T09:43:07.008Z,1.90
2018-01-22T09:45:36.554Z,2.23
2018-01-22T09:48:06.093Z,2.30
2018-01-22T09:50:35.671Z,2.40
2018-01-22T09:53:05.204Z,2.27
2018-01-22T09:55:34.819Z,2.73
2018-01-22T09:58:04.368Z,2.73
2018-01-22T10:00:33.956Z,2.63
2018-01-22T10:03:03.608Z,2.00
2018-01-22T10:05:33.232Z,2.40
2018-01-22T10:08:03.665Z,2.50
2018-01-22T10:10:33.191Z,2.10
2018-01-22T10:13:03.008Z,2.57
2018-01-22T10:15:36.028Z,2.23
2018-01-22T10:18:20.914Z,2.70
2018-01-22T10:20:50.466Z,1.80
2018-01-22T10:23:20.029Z,2.50
2018-01-22T10:25:49.657Z,2.00
2018-01-22T10:28:19.217Z,2.57
2018-01-22T10:30:48.701Z,2.10
2018-01-22T10:33:18.269Z,1.90
2018-01-22T10:35:50.231Z,2.17
2018-01-22T10:38:19.795Z,2.20
2018-01-22T10:40:51.473Z,1.90
2018-01-22T10:43:21.043Z,2.00
2018-01-22T10:45:50.942Z,1.93
2018-01-22T10:48:20.507Z,2.20
2018-01-22T10:50:50.075Z,2.03
2018-01-22T10:53:19.782Z,2.40
2018-01-22T10:55:49.331Z,1.97
2018-01-22T10:58:18.929Z,2.13
2018-01-22T11:00:48.480Z,3.00
2018-01-22T11:03:18.134Z,1.97
2018-01-22T11:05:47.787Z,2.07
2018-01-22T11:08:17.348Z,1.63
2018-01-22T11:10:46.864Z,2.30
2018-01-22T11:13:16.576Z,1.70
2018-01-22T11:15:51.693Z,1.90
2018-01-22T11:18:21.228Z,2.00
2018-01-22T11:20:51.005Z,2.17
2018-01-22T11:23:20.529Z,1.50
2018-01-22T11:25:50.066Z,1.80
2018-01-22T11:28:19.539Z,2.00
2018-01-22T11:30:49.142Z,2.30
2018-01-22T11:33:18.635Z,1.97
2018-01-22T11:35:48.357Z,2.10
2018-01-22T11:38:17.891Z,2.20
2018-01-22T11:40:47.428Z,2.20
2018-01-22T11:43:17.168Z,1.73
2018-01-22T11:45:46.696Z,2.23
2018-01-22T11:48:16.223Z,2.10
2018-01-22T11:50:45.761Z,2.40
2018-01-22T11:53:15.764Z,2.00
2018-01-22T11:55:57.366Z,2.57
2018-01-22T11:58:26.902Z,1.90
2018-01-22T12:00:56.449Z,1.87
2018-01-22T12:03:26.007Z,2.40
2018-01-22T12:05:55.553Z,1.67
2018-01-22T12:08:31.121Z,2.13
2018-01-22T12:11:00.643Z,1.90
2018-01-22T12:13:30.189Z,2.10
2018-01-22T12:15:59.852Z,2.30
2018-01-22T12:18:29.403Z,2.50
2018-01-22T12:20:58.933Z,3.30
2018-01-22T12:23:28.463Z,2.57
2018-01-22T12:25:57.984Z,2.03
2018-01-22T12:28:27.518Z,2.13
2018-01-22T12:30:57.021Z,2.17
2018-01-22T12:33:27.445Z,1.70
2018-01-22T12:35:57.038Z,1.87
2018-01-22T12:38:27.024Z,2.10
2018-01-22T12:41:03.441Z,2.27
2018-01-22T12:43:32.957Z,3.00
2018-01-22T12:46:02.500Z,2.90
2018-01-22T12:48:31.999Z,2.37
2018-01-22T12:51:02.281Z,2.77
2018-01-22T12:53:31.757Z,2.40
2018-01-22T12:56:08.439Z,2.47
2018-01-22T12:58:37.930Z,2.10
2018-01-22T13:01:07.496Z,2.10
2018-01-22T13:03:39.122Z,2.00
2018-01-22T13:06:09.581Z,2.93
2018-01-22T13:08:39.479Z,2.40
2018-01-22T13:11:22.667Z,2.50
2018-01-22T13:13:53.068Z,2.37
2018-01-22T13:16:25.733Z,2.87
2018-01-22T13:18:55.369Z,2.47
2018-01-22T13:21:25.687Z,2.00
2018-01-22T13:23:55.450Z,2.30
2018-01-22T13:26:25.003Z,2.63
2018-01-22T13:28:54.524Z,2.53
2018-01-22T13:31:24.072Z,2.10
2018-01-22T13:33:53.973Z,2.40
2018-01-22T13:36:23.693Z,3.47
2018-01-22T13:38:53.265Z,2.30
2018-01-22T13:41:31.691Z,2.20
2018-01-22T13:44:08.675Z,2.23
2018-01-22T13:46:40.225Z,2.30
2018-01-22T13:49:09.770Z,2.30
2018-01-22T13:51:39.305Z,2.40
2018-01-22T13:54:09.255Z,2.57
2018-01-22T13:56:40.222Z,2.57
2018-01-22T13:59:10.412Z,2.70
2018-01-22T14:01:40.289Z,2.57
2018-01-22T14:04:09.830Z,2.50
2018-01-22T14:06:40.183Z,2.37
2018-01-22T14:09:10.708Z,2.23
2018-01-22T14:11:40.484Z,2.57
2018-01-22T14:14:19.351Z,2.63
2018-01-22T14:16:48.933Z,2.57
2018-01-22T14:19:18.447Z,2.43
2018-01-22T14:21:54.053Z,2.43
2018-01-22T14:24:24.070Z,3.00
2018-01-22T14:26:53.800Z,2.50
2018-01-22T14:29:23.520Z,2.40
2018-01-22T14:31:53.044Z,2.60
2018-01-22T14:34:22.631Z,2.93
2018-01-22T14:36:52.180Z,2.97
2018-01-22T14:39:35.722Z,2.17
2018-01-22T14:42:05.269Z,2.70
2018-01-22T14:44:34.880Z,2.20
2018-01-22T14:47:04.434Z,2.60
2018-01-22T14:49:33.993Z,2.47
2018-01-22T14:52:03.565Z,2.30
2018-01-22T14:54:33.334Z,2.60
2018-01-22T14:57:02.893Z,2.43
2018-01-22T14:59:32.399Z,2.50
2018-01-22T15:02:05.256Z,2.50
2018-01-22T15:04:34.791Z,2.50
2018-01-22T15:07:04.468Z,2.50
2018-01-22T15:09:34.000Z,2.83
2018-01-22T15:12:03.605Z,3.00
2018-01-22T15:14:33.281Z,2.70
2018-01-22T15:17:03.613Z,2.33
2018-01-22T15:19:33.156Z,2.90
2018-01-22T15:22:02.755Z,3.50
2018-01-22T15:24:32.970Z,2.80
2018-01-22T15:27:02.466Z,2.40
2018-01-22T15:29:32.006Z,2.53
2018-01-22T15:32:13.769Z,2.33
2018-01-22T15:34:43.332Z,3.43
2018-01-22T15:37:12.979Z,2.80
2018-01-22T15:39:42.776Z,3.03
2018-01-22T15:42:12.329Z,2.80
2018-01-22T15:44:48.089Z,2.83
2018-01-22T15:47:18.015Z,3.53
2018-01-22T15:49:47.584Z,2.73
2018-01-22T15:52:17.333Z,2.70
2018-01-22T15:54:46.845Z,3.00
2018-01-22T15:57:16.390Z,3.00
2018-01-22T15:59:45.919Z,2.90
2018-01-22T16:02:21.554Z,2.20
2018-01-22T16:04:51.429Z,3.13
2018-01-22T16:07:20.946Z,2.70
2018-01-22T16:10:02.562Z,2.60
2018-01-22T16:12:32.073Z,3.60
2018-01-22T16:15:09.371Z,2.47
2018-01-22T16:17:45.915Z,3.27
2018-01-22T16:20:15.438Z,2.67
2018-01-22T16:22:44.989Z,3.07
2018-01-22T16:25:14.500Z,3.07
2018-01-22T16:27:44.062Z,3.97
2018-01-22T16:30:13.628Z,4.10
2018-01-22T16:32:43.485Z,3.50
2018-01-22T16:35:13.252Z,3.23
2018-01-22T16:37:42.773Z,3.50
2018-01-22T16:40:12.762Z,2.73
2018-01-22T16:42:50.582Z,2.90
2018-01-22T16:45:31.226Z,2.97
2018-01-22T16:48:00.762Z,5.13
2018-01-22T16:50:30.266Z,3.17
2018-01-22T16:52:59.804Z,3.03
2018-01-22T16:55:29.478Z,3.07
2018-01-22T16:57:59.063Z,3.03
2018-01-22T17:00:28.690Z,2.73
2018-01-22T17:02:58.835Z,4.53
2018-01-22T17:05:28.395Z,3.33
2018-01-22T17:08:00.001Z,3.53
2018-01-22T17:10:29.832Z,3.93
2018-01-22T17:13:05.226Z,3.60
2018-01-22T17:15:34.774Z,3.70
2018-01-22T17:18:04.676Z,2.80
2018-01-22T17:20:34.305Z,3.50
2018-01-22T17:23:03.870Z,3.60
2018-01-22T17:25:33.421Z,3.77
2018-01-22T17:28:02.972Z,3.47
2018-01-22T17:30:32.884Z,3.30
2018-01-22T17:33:02.411Z,3.73
2018-01-22T17:35:31.917Z,3.47
2018-01-22T17:38:01.458Z,2.87
2018-01-22T17:40:31.182Z,3.20
2018-01-22T17:43:00.700Z,4.40
2018-01-22T17:45:30.213Z,3.10
2018-01-22T17:47:59.797Z,3.07
2018-01-22T17:50:29.350Z,3.23
2018-01-22T17:52:58.916Z,3.03
2018-01-22T17:55:28.426Z,3.40
2018-01-22T17:57:57.918Z,3.20
2018-01-22T18:00:27.419Z,2.80
2018-01-22T18:02:57.000Z,3.23
2018-01-22T18:05:27.131Z,2.83
2018-01-22T18:07:56.653Z,3.67
2018-01-22T18:10:26.180Z,3.40
2018-01-22T18:12:55.959Z,3.37
2018-01-22T18:15:25.478Z,3.63
2018-01-22T18:17:55.043Z,3.70
2018-01-22T18:20:24.954Z,2.97
2018-01-22T18:22:54.466Z,2.80
2018-01-22T18:25:24.646Z,3.17
2018-01-22T18:27:54.558Z,2.90
2018-01-22T18:30:24.720Z,2.87
2018-01-22T18:32:54.239Z,3.20
2018-01-22T18:35:23.757Z,3.80
2018-01-22T18:38:03.843Z,3.40
2018-01-22T18:40:33.619Z,3.27
2018-01-22T18:43:04.210Z,3.90
2018-01-22T18:45:33.841Z,2.97
2018-01-22T18:48:09.901Z,3.00
2018-01-22T18:50:39.420Z,3.03
2018-01-22T18:53:08.973Z,3.10
2018-01-22T18:55:39.005Z,3.00
2018-01-22T18:58:08.641Z,3.00
2018-01-22T19:00:38.472Z,3.00
2018-01-22T19:03:07.993Z,3.07
2018-01-22T19:05:42.324Z,3.40
2018-01-22T19:08:11.874Z,3.27
2018-01-22T19:10:41.609Z,3.30
2018-01-22T19:13:11.389Z,3.40
2018-01-22T19:15:41.007Z,3.60
2018-01-22T19:18:10.506Z,3.67
2018-01-22T19:20:43.985Z,3.43
2018-01-22T19:23:13.523Z,3.60
2018-01-22T19:25:46.682Z,3.27
2018-01-22T19:28:16.178Z,3.97
2018-01-22T19:30:45.874Z,3.70
2018-01-22T19:33:21.459Z,3.30
2018-01-22T19:35:52.096Z,3.27
2018-01-22T19:38:21.720Z,3.40
2018-01-22T19:40:51.264Z,3.23
2018-01-22T19:43:21.625Z,3.10
2018-01-22T19:46:04.474Z,3.07
2018-01-22T19:48:34.134Z,3.30
2018-01-22T19:51:03.644Z,3.80
2018-01-22T19:53:40.843Z,3.10
2018-01-22T19:56:10.352Z,3.03
2018-01-22T19:58:40.073Z,2.80
2018-01-22T20:01:14.356Z,3.40
2018-01-22T20:03:43.885Z,3.10
2018-01-22T20:06:13.510Z,3.40
2018-01-22T20:08:43.085Z,3.30
2018-01-22T20:11:12.625Z,3.13
2018-01-22T20:13:42.133Z,3.40
2018-01-22T20:16:11.692Z,2.67
2018-01-22T20:18:41.618Z,2.70
2018-01-22T20:21:11.157Z,2.67
2018-01-22T20:23:40.756Z,2.40
2018-01-22T20:26:10.294Z,2.50
2018-01-22T20:28:40.040Z,2.60
2018-01-22T20:31:11.043Z,2.40
2018-01-22T20:33:40.629Z,2.83
2018-01-22T20:36:10.584Z,2.70
2018-01-22T20:38:46.545Z,2.30
2018-01-22T20:41:29.697Z,2.70
2018-01-22T20:43:59.204Z,2.10
2018-01-22T20:46:29.082Z,2.90
2018-01-22T20:48:58.736Z,2.70
2018-01-22T20:51:28.244Z,2.50
2018-01-22T20:53:58.327Z,2.50
2018-01-22T20:56:27.847Z,2.17
2018-01-22T20:58:57.508Z,2.40
2018-01-22T21:01:27.532Z,2.30
2018-01-22T21:03:58.836Z,2.60
2018-01-22T21:06:28.359Z,2.27
2018-01-22T21:08:57.921Z,2.20
2018-01-22T21:11:27.455Z,2.00
2018-01-22T21:13:57.104Z,2.30
2018-01-22T21:16:26.650Z,3.70
2018-01-22T21:18:56.250Z,3.13
2018-01-22T21:21:26.232Z,3.30
2018-01-22T21:23:55.955Z,3.30
2018-01-22T21:26:26.689Z,3.33
2018-01-22T21:28:56.216Z,3.10
2018-01-22T21:31:25.835Z,2.90
2018-01-22T21:33:55.396Z,4.70
2018-01-22T21:36:24.923Z,4.50
2018-01-22T21:38:54.444Z,4.50
2018-01-22T21:41:24.021Z,4.93
2018-01-22T21:43:53.853Z,4.40
2018-01-22T21:46:23.929Z,4.10
2018-01-22T21:48:54.345Z,4.00
2018-01-22T21:51:23.889Z,3.70
2018-01-22T21:53:53.752Z,3.73
2018-01-22T21:56:23.266Z,4.37
2018-01-22T21:58:52.786Z,3.80
2018-01-22T22:01:22.276Z,4.27
2018-01-22T22:03:51.817Z,4.30
2018-01-22T22:06:21.730Z,4.27
2018-01-22T22:08:51.236Z,3.97
2018-01-22T22:11:20.790Z,4.50
2018-01-22T22:13:50.433Z,4.03
2018-01-22T22:16:19.960Z,4.30
2018-01-22T22:18:49.563Z,5.20
2018-01-22T22:21:19.115Z,6.60
2018-01-22T22:23:48.862Z,6.13
2018-01-22T22:26:18.353Z,6.07
2018-01-22T22:28:47.865Z,6.63
2018-01-22T22:31:17.371Z,6.20
2018-01-22T22:33:47.829Z,6.17
2018-01-22T22:36:20.646Z,6.23
2018-01-22T22:38:50.146Z,5.90
2018-01-22T22:41:19.679Z,6.43
2018-01-22T22:43:49.195Z,5.30
2018-01-22T22:46:18.726Z,6.20
2018-01-22T22:48:48.278Z,5.83
2018-01-22T22:51:17.789Z,5.50
2018-01-22T22:53:47.286Z,6.00
2018-01-22T22:56:16.857Z,5.90
2018-01-22T22:58:46.389Z,4.50
2018-01-22T23:01:15.951Z,6.47
2018-01-22T23:03:45.499Z,5.60
2018-01-22T23:06:15.161Z,5.67
2018-01-22T23:08:45.145Z,5.73
2018-01-22T23:11:16.553Z,4.60
2018-01-22T23:13:46.194Z,5.60
2018-01-22T23:16:15.994Z,5.00
2018-01-22T23:18:45.535Z,5.80
2018-01-22T23:21:15.051Z,5.60
2018-01-22T23:23:44.599Z,6.17
2018-01-22T23:26:14.160Z,7.13
2018-01-22T23:28:43.687Z,5.23
2018-01-22T23:31:13.250Z,7.07
2018-01-22T23:33:43.745Z,6.60
2018-01-22T23:36:13.865Z,5.90
2018-01-22T23:38:43.368Z,5.97
2018-01-22T23:41:12.911Z,5.47
2018-01-22T23:43:42.444Z,5.73
2018-01-22T23:46:11.973Z,5.20
2018-01-22T23:48:43.817Z,5.13
2018-01-22T23:51:13.321Z,5.80
2018-01-22T23:53:42.815Z,4.23
2018-01-22T23:56:12.705Z,4.13
2018-01-22T23:58:42.254Z,5.33
